Campiña-No particular awareness of the weather is required.   -   There are no Weather-warnings

Nearby METAR Reports

 

LEZL - Sevilla, Spain
Distance from station: ENE 8km
Updated: 25/05/2020 09:30
Clear
Clear
 Wind from varies
Wind: varies 2 km/h
Temperature: 23°C
Dew Point: 14°C
Humidity: 57%
Barometer: 1022 hPa
Summary: Clear
Visibility: greater than 10 km
2020/05/25 07:30 LEZL 250730Z AUTO VRB01KT CAVOK 23/14 Q1022
LEMO - Morón, Spain
Distance from station: SE 43km
Updated: 25/05/2020 10:00
Clear
Clear
 Wind from calm
Wind: Calm
Temperature: 25°C
Dew Point: 10°C
Humidity: 39%
Barometer: 1022 hPa
Summary: Clear
Visibility: greater than 10 km
2020/05/25 08:00 LEMO 250800Z 00000KT CAVOK 25/10 Q1022 NOSIG
LEJR - Jeréz, Spain
Distance from station: S 71km
Updated: 25/05/2020 10:00
Clear
Clear
 Wind from NE
Wind: NE 9 km/h
Temperature: 25°C
Dew Point: 11°C
Humidity: 42%
Barometer: 1022 hPa
Summary: Clear
Visibility: greater than 10 km
2020/05/25 08:00 LEJR 250800Z 05005KT 020V090 CAVOK 25/11 Q1022
 
LERT - Rota, Spain
Distance from station: SSW 89km
Updated: 25/05/2020 09:00
Clear
Clear
 Wind from E
Wind: E 11 km/h
Temperature: 20°C
Dew Point: 11°C
Humidity: 56%
Barometer: 1021 hPa
Summary: Clear
Visibility: greater than 10 km
2020/05/25 07:00 LERT 250700Z 08006KT CAVOK 20/11 Q1021 NOSIG
LEMG - Málaga, Spain
Distance from station: ESE 157km
Updated: 25/05/2020 10:00
Few Clouds
Few Clouds
 Wind from WNW
Wind: WNW 7 km/h
Temperature: 21°C
Dew Point: 16°C
Humidity: 73%
Barometer: 1024 hPa
Clouds: Few Clouds
Visibility: 10 km
Cloud details: Few Clouds 762 m
2020/05/25 08:00 LEMG 250800Z 29004KT 260V360 9999 FEW025 21/16 Q1024 NOSIG
LEBA - Córdoba, Spain
Distance from station: ENE 115km
Updated: 25/05/2020 09:30
Clear
Clear
 Wind from varies
Wind: varies 4 km/h
Temperature: 22°C
Dew Point: 12°C
Humidity: 53%
Barometer: 1023 hPa
Summary: Clear
Visibility: greater than 10 km
2020/05/25 07:30 LEBA 250730Z AUTO VRB02KT CAVOK 22/12 Q1023
 
LEGR - Granada, Spain
Distance from station: E 198km
Updated: 25/05/2020 10:00
Clear
Clear
 Wind from varies
Wind: varies 4 km/h
Temperature: 21°C
Dew Point: 12°C
Humidity: 57%
Barometer: 1025 hPa
Summary: Clear
Visibility: greater than 10 km
2020/05/25 08:00 LEGR 250800Z AUTO VRB02KT CAVOK 21/12 Q1025
LEAM - Almería, Spain
Distance from station: E 326km
Updated: 25/05/2020 10:00
Clear
Clear
 Wind from S
Wind: S 7 km/h
Temperature: 23°C
Dew Point: 14°C
Humidity: 57%
Barometer: 1024 hPa
Summary: Clear
Visibility: greater than 10 km
2020/05/25 08:00 LEAM 250800Z AUTO 17004KT 150V210 CAVOK 23/14 Q1024
LEMD - Madrid/Barajas, Spain
Distance from station: NNE 402km
Updated: 25/05/2020 10:00
Partly cloudy
Partly cloudy
 Wind from calm
Wind: Calm
Temperature: 23°C
Dew Point: 14°C
Humidity: 57%
Barometer: 1025 hPa
Clouds: Partly cloudy
Visibility: 10 km
Cloud details: Partly cloudy 2438 m
2020/05/25 08:00 LEMD 250800Z 00000KT 9999 SCT080 23/14 Q1025 NOSIG
 
LEVD - Valladolid, Spain
Distance from station: N 492km
Updated: 25/05/2020 10:00
Overcast
Overcast
 Wind from ENE
Wind: ENE 15 km/h
Temperature: 13°C
Dew Point: 11°C
Humidity: 88%
Barometer: 1026 hPa
Clouds: Overcast
Visibility: 10 km
Cloud details: Overcast 91 m
2020/05/25 08:00 LEVD 250800Z AUTO 06008KT 040V100 9999 OVC003 13/11 Q1026
LEBL - Barcelona, Spain
Distance from station: NE 816km
Updated: 25/05/2020 10:00
Few Clouds
Few Clouds
 Wind from SSE
Wind: SSE 9 km/h
Temperature: 21°C
Dew Point: 16°C
Humidity: 73%
Barometer: 1026 hPa
Clouds: Few Clouds
Visibility: 10 km
Cloud details: Few Clouds 1067 m
2020/05/25 08:00 LEBL 250800Z 16005KT 120V190 9999 FEW035 21/16 Q1026 NOSIG
LEVC - Valencia, Spain
Distance from station: ENE 535km
Updated: 25/05/2020 10:00
Few Clouds
Few Clouds
 Wind from varies
Wind: varies 4 km/h
Temperature: 22°C
Dew Point: 15°C
Humidity: 65%
Barometer: 1027 hPa
Clouds: Few Clouds
Visibility: 10 km
Cloud details: Few Clouds 1067 m
2020/05/25 08:00 LEVC 250800Z VRB02KT 9999 FEW035 22/15 Q1027 NOSIG